Time;durP1;ratioP1;P1;durP2;ratioP2;P2;SDS_P1;SDS_P2;PMS_P1;PMS_P2;Temp;Humidity;BMP_temperature;BMP_pressure;BME280_temperature;BME280_humidity;BME280_pressure;Samples;Min_cycle;Max_cycle;Signal;HPM_P1;HPM_P2
2022/08/25 00:08:41;;;;;;;1999.90;999.90;;;23.80;86.90;;;;;;6711182;88;20189;-75
2022/08/25 00:18:47;;;;;;;1999.90;999.90;;;23.60;89.60;;;;;;6711201;88;20215;-76
2022/08/25 00:28:47;;;;;;;1999.90;999.90;;;23.40;91.20;;;;;;6717768;88;20198;-75
2022/08/25 00:38:48;;;;;;;1999.90;999.90;;;23.20;92.20;;;;;;6713537;88;20217;-75
2022/08/25 00:48:59;;;;;;;1999.90;999.90;;;23.10;92.40;;;;;;6709642;88;20186;-76
2022/08/25 00:59:01;;;;;;;1999.90;999.90;;;22.90;91.70;;;;;;6744936;77;20619;-79
2022/08/25 01:09:03;;;;;;;1999.90;999.90;;;22.80;92.80;;;;;;6751241;87;20604;-78
2022/08/25 01:19:06;;;;;;;1999.90;999.90;;;22.60;92.00;;;;;;6753092;87;20176;-77
2022/08/25 01:29:20;;;;;;;1999.90;999.90;;;22.40;93.10;;;;;;6748744;88;20208;-77
2022/08/25 01:39:21;;;;;;;1999.90;999.90;;;22.30;94.20;;;;;;6754442;87;20205;-79
2022/08/25 01:49:21;;;;;;;1999.90;999.90;;;22.10;95.30;;;;;;6762733;88;20213;-77
2022/08/25 01:59:23;;;;;;;1999.90;999.90;;;22.00;96.00;;;;;;6750354;88;20192;-78
2022/08/25 02:09:23;;;;;;;1999.90;999.90;;;22.00;96.50;;;;;;6751806;88;20206;-77
2022/08/25 02:19:24;;;;;;;1999.90;999.90;;;21.60;97.80;;;;;;6746884;88;20719;-77
2022/08/25 02:29:25;;;;;;;1999.90;999.90;;;21.40;99.20;;;;;;6747325;88;21078;-77
2022/08/25 02:39:25;;;;;;;1999.90;999.90;;;21.10;99.90;;;;;;6751877;87;20332;-78
2022/08/25 02:49:26;;;;;;;1999.90;999.90;;;21.00;99.90;;;;;;6751399;88;20201;-77
2022/08/25 02:59:27;;;;;;;1999.90;999.90;;;20.80;99.90;;;;;;6750383;88;20355;-77
2022/08/25 03:09:27;;;;;;;1999.90;999.90;;;20.80;99.90;;;;;;6751333;88;20189;-76
2022/08/25 03:19:28;;;;;;;1999.90;999.90;;;20.70;99.90;;;;;;6751017;88;20188;-77
2022/08/25 03:29:31;;;;;;;1999.90;999.90;;;20.50;99.90;;;;;;6753056;88;21002;-78
2022/08/25 03:39:32;;;;;;;1999.90;999.90;;;20.50;99.90;;;;;;6750468;88;20597;-76
2022/08/25 03:49:33;;;;;;;1999.90;999.90;;;20.40;99.90;;;;;;6755760;88;20212;-78
2022/08/25 03:59:34;;;;;;;1999.90;999.90;;;20.40;99.90;;;;;;6754656;88;20196;-78
2022/08/25 04:09:34;;;;;;;1999.90;999.90;;;20.40;99.90;;;;;;6752324;88;20182;-77
2022/08/25 04:19:36;;;;;;;1999.90;999.90;;;20.40;99.90;;;;;;6752226;88;20201;-77
2022/08/25 04:29:37;;;;;;;1999.90;999.90;;;20.10;99.90;;;;;;6760331;88;20230;-77
2022/08/25 04:39:37;;;;;;;1999.90;999.90;;;19.80;99.90;;;;;;6757225;88;20189;-79
2022/08/25 04:49:38;;;;;;;1999.90;999.90;;;19.70;99.90;;;;;;6753006;87;20194;-77
2022/08/25 04:59:38;;;;;;;1999.90;999.90;;;19.60;99.90;;;;;;6753639;88;20199;-78
2022/08/25 05:09:39;;;;;;;1999.90;999.90;;;19.50;99.90;;;;;;6750557;88;20500;-78
2022/08/25 05:19:40;;;;;;;1999.90;999.90;;;19.60;99.90;;;;;;6761610;88;20243;-77
2022/08/25 05:29:40;;;;;;;1999.90;999.90;;;19.70;99.90;;;;;;6750018;87;20767;-79
2022/08/25 05:39:41;;;;;;;1999.90;999.90;;;19.80;99.90;;;;;;6750301;88;20210;-77
2022/08/25 05:49:41;;;;;;;1999.90;999.90;;;19.90;99.90;;;;;;6743468;88;20188;-77
2022/08/25 05:59:42;;;;;;;1999.90;999.90;;;20.20;99.90;;;;;;6751288;88;20200;-76
2022/08/25 06:19:35;;;;;;;1999.90;999.90;;;20.60;99.90;;;;;;6802039;86;20191;-79
2022/08/25 06:29:35;;;;;;;1999.90;999.90;;;21.70;99.90;;;;;;6800744;87;20314;-80
2022/08/25 06:39:36;;;;;;;1999.90;999.90;;;22.20;99.90;;;;;;6790142;87;20211;-79
2022/08/25 06:49:36;;;;;;;1999.90;999.90;;;22.90;99.90;;;;;;6784001;87;20179;-81
2022/08/25 06:59:37;;;;;;;1999.90;999.90;;;23.40;99.90;;;;;;6792026;87;20232;-80
2022/08/25 07:09:37;;;;;;;1999.90;999.90;;;23.80;99.90;;;;;;6783617;87;20515;-80
2022/08/25 07:19:38;;;;;;;1999.90;999.90;;;24.30;99.90;;;;;;6791932;87;20301;-81
2022/08/25 07:29:39;;;;;;;1999.90;999.90;;;24.80;99.90;;;;;;6772728;87;20481;-81
2022/08/25 07:39:39;;;;;;;1999.90;999.90;;;25.20;99.50;;;;;;6783798;87;20328;-81
2022/08/25 07:49:40;;;;;;;1999.90;999.90;;;25.80;98.80;;;;;;6769254;76;21009;-76
2022/08/25 07:59:42;;;;;;;1999.90;999.90;;;25.90;98.70;;;;;;6722198;88;20313;-78
2022/08/25 08:09:42;;;;;;;1999.90;999.90;;;26.20;98.90;;;;;;6721463;88;20641;-76
2022/08/25 08:19:43;;;;;;;1999.90;999.90;;;26.60;98.50;;;;;;6705956;88;20191;-77
2022/08/25 08:29:44;;;;;;;1999.90;999.90;;;27.10;97.50;;;;;;6716350;88;20198;-76
2022/08/25 08:39:45;;;;;;;1999.90;999.90;;;27.20;97.30;;;;;;6713295;88;20282;-78
2022/08/25 08:50:11;;;;;;;1999.90;999.90;;;27.90;96.60;;;;;;6712792;88;20344;-79
2022/08/25 09:00:13;;;;;;;1999.90;999.90;;;28.40;95.90;;;;;;6715784;88;20236;-76
2022/08/25 09:10:16;;;;;;;1999.90;999.90;;;28.40;95.50;;;;;;6716644;88;20210;-77
2022/08/25 09:20:45;;;;;;;1999.90;999.90;;;28.70;94.90;;;;;;6715587;88;20209;-77
2022/08/25 09:31:18;;;;;;;1999.90;999.90;;;29.50;94.50;;;;;;6712189;88;20223;-77
2022/08/25 09:41:40;;;;;;;1999.90;999.90;;;29.80;93.40;;;;;;6716068;88;20207;-78
2022/08/25 09:51:41;;;;;;;1999.90;999.90;;;30.40;92.50;;;;;;6720452;88;20227;-78
2022/08/25 10:01:48;;;;;;;1999.90;999.90;;;31.20;91.80;;;;;;6717108;88;20264;-77
2022/08/25 10:11:51;;;;;;;1999.90;999.90;;;30.70;90.90;;;;;;6719217;88;20189;-77
2022/08/25 10:22:11;;;;;;;1999.90;999.90;;;31.80;90.30;;;;;;6719958;88;20265;-77
2022/08/25 10:32:29;;;;;;;1999.90;999.90;;;32.40;88.10;;;;;;6713477;88;20252;-77
2022/08/25 10:42:52;;;;;;;1999.90;999.90;;;32.30;87.50;;;;;;6717239;88;20197;-77
2022/08/25 10:53:09;;;;;;;1999.90;999.90;;;33.50;85.00;;;;;;6719627;88;20208;-77
2022/08/25 11:03:48;;;;;;;1999.90;999.90;;;33.30;84.00;;;;;;6714920;88;20178;-77
2022/08/25 11:13:56;;;;;;;1999.90;999.90;;;34.80;82.00;;;;;;6692893;88;20206;-77
2022/08/25 11:24:20;;;;;;;1999.90;999.90;;;34.70;80.00;;;;;;6721114;88;20524;-77
2022/08/25 11:34:21;;;;;;;1999.90;999.90;;;33.60;79.70;;;;;;6721749;88;20197;-78
2022/08/25 11:44:49;;;;;;;1999.90;999.90;;;35.20;76.00;;;;;;6722719;88;20250;-77
2022/08/25 11:54:50;;;;;;;1999.90;999.90;;;36.20;73.80;;;;;;6716207;88;21008;-77
2022/08/25 12:04:54;;;;;;;1999.90;999.90;;;37.00;73.30;;;;;;6723528;88;20208;-77
2022/08/25 12:14:54;;;;;;;1999.90;999.90;;;34.30;73.90;;;;;;6722783;88;20228;-77
2022/08/25 12:25:05;;;;;;;1999.90;999.90;;;35.30;73.90;;;;;;6724263;88;20198;-77
2022/08/25 12:35:24;;;;;;;1999.90;999.90;;;37.90;72.10;;;;;;6724016;88;20305;-77
2022/08/25 12:45:36;;;;;;;1999.90;999.90;;;37.50;68.80;;;;;;6718785;88;20174;-76
2022/08/25 12:55:41;;;;;;;1999.90;999.90;;;36.00;71.00;;;;;;6718817;88;20182;-76
2022/08/25 13:06:06;;;;;;;1999.90;999.90;;;37.00;69.20;;;;;;6722822;88;20192;-77
2022/08/25 13:16:15;;;;;;;1999.90;999.90;;;37.80;67.50;;;;;;6719694;88;20253;-77
2022/08/25 13:26:26;;;;;;;1999.90;999.90;;;36.60;68.30;;;;;;6720884;88;20258;-77
2022/08/25 13:47:05;;;;;;;1999.90;999.90;;;37.70;64.90;;;;;;6724098;88;20193;-77
2022/08/25 14:08:30;;;;;;;1999.90;999.90;;;37.20;62.30;;;;;;6706216;88;20207;-79
2022/08/25 14:18:31;;;;;;;1999.90;999.90;;;38.30;61.40;;;;;;6706842;88;20994;-79
2022/08/25 14:28:32;;;;;;;1999.90;999.90;;;38.90;61.50;;;;;;6702805;88;20194;-78
2022/08/25 14:38:34;;;;;;;1999.90;999.90;;;37.40;60.20;;;;;;6699455;88;20282;-78
2022/08/25 14:48:39;;;;;;;1999.90;999.90;;;37.60;58.90;;;;;;6702065;88;20247;-78
2022/08/25 14:58:40;;;;;;;1999.90;999.90;;;38.10;58.90;;;;;;6703773;88;20272;-78
2022/08/25 15:19:09;;;;;;;1999.90;999.90;;;37.50;59.40;;;;;;6706045;88;20178;-78
2022/08/25 15:29:10;;;;;;;1999.90;999.90;;;37.10;58.50;;;;;;6700493;88;20202;-79
2022/08/25 15:39:10;;;;;;;1999.90;999.90;;;36.70;58.80;;;;;;6704785;88;20508;-78
2022/08/25 15:49:11;;;;;;;1999.90;999.90;;;35.90;59.30;;;;;;6706471;88;20338;-79
2022/08/25 15:59:12;;;;;;;1999.90;999.90;;;36.10;59.40;;;;;;6706285;88;20221;-79
2022/08/25 16:09:13;;;;;;;1999.90;999.90;;;35.70;60.00;;;;;;6703910;88;20508;-78
2022/08/25 16:19:14;;;;;;;1999.90;999.90;;;35.20;60.80;;;;;;6713977;88;20254;-78
2022/08/25 16:29:15;;;;;;;;;;;34.90;61.40;;;;;;6707205;88;20288;-80
2022/08/25 16:39:15;;;;;;;1999.90;999.90;;;34.60;61.90;;;;;;6706858;88;20042;-79
2022/08/25 16:49:16;;;;;;;1999.90;999.90;;;34.60;61.60;;;;;;6703449;88;20202;-76
2022/08/25 16:59:17;;;;;;;1999.90;999.90;;;34.20;62.80;;;;;;6710715;88;20225;-79
2022/08/25 17:09:18;;;;;;;1999.90;999.90;;;33.40;63.50;;;;;;6717561;88;20645;-78
2022/08/25 17:19:18;;;;;;;1999.90;999.90;;;33.20;64.20;;;;;;6706549;88;20572;-78
2022/08/25 17:29:20;;;;;;;1999.90;999.90;;;32.90;64.40;;;;;;6709400;88;20265;-79
2022/08/25 17:39:21;;;;;;;1999.90;999.90;;;32.30;65.30;;;;;;6705461;88;20182;-80
2022/08/25 17:49:22;;;;;;;1999.90;999.90;;;32.00;66.30;;;;;;6707576;88;20311;-80
2022/08/25 17:59:23;;;;;;;1999.90;999.90;;;31.90;66.40;;;;;;6707780;88;20860;-80
2022/08/25 18:09:23;;;;;;;1999.90;999.90;;;31.50;67.50;;;;;;6703163;88;20307;-75
2022/08/25 18:19:24;;;;;;;1999.90;999.90;;;31.10;70.30;;;;;;6695217;88;20195;-74
2022/08/25 18:29:25;;;;;;;1999.90;999.90;;;30.60;70.50;;;;;;6695661;88;20227;-76
2022/08/25 18:49:45;;;;;;;1999.90;999.90;;;30.10;72.00;;;;;;6718524;88;20704;-80
2022/08/25 18:59:46;;;;;;;1999.90;999.90;;;29.70;72.70;;;;;;6701740;88;20252;-78
2022/08/25 19:09:46;;;;;;;1999.90;999.90;;;29.30;73.10;;;;;;6702804;88;20182;-78
2022/08/25 19:19:47;;;;;;;1999.90;999.90;;;29.10;73.60;;;;;;6702419;88;20206;-79
2022/08/25 19:29:48;;;;;;;1999.90;999.90;;;28.70;74.40;;;;;;6704958;88;20683;-79
2022/08/25 19:39:52;;;;;;;1999.90;999.90;;;28.50;75.20;;;;;;6700227;88;20192;-80
2022/08/25 19:59:56;;;;;;;1999.90;999.90;;;28.20;75.40;;;;;;6725269;88;20221;-77
2022/08/25 20:09:58;;;;;;;1999.90;999.90;;;27.70;76.50;;;;;;6716046;88;20201;-77
2022/08/25 20:20:03;;;;;;;1999.90;999.90;;;27.60;77.90;;;;;;6715798;88;20198;-77
2022/08/25 20:30:09;;;;;;;1999.90;999.90;;;27.40;78.60;;;;;;6716142;88;20329;-78
2022/08/25 20:40:13;;;;;;;1999.90;999.90;;;27.10;79.70;;;;;;6723904;88;20580;-78
2022/08/25 20:50:14;;;;;;;1999.90;999.90;;;26.90;80.60;;;;;;6714984;88;20244;-78
2022/08/25 21:00:16;;;;;;;1999.90;999.90;;;26.70;80.80;;;;;;6717052;88;20194;-77
2022/08/25 21:10:16;;;;;;;1999.90;999.90;;;26.60;81.30;;;;;;6715650;88;20620;-78
2022/08/25 21:20:17;;;;;;;1999.90;999.90;;;26.40;81.70;;;;;;6715910;88;20189;-78
2022/08/25 21:30:18;;;;;;;1999.90;999.90;;;26.20;82.70;;;;;;6717335;88;20530;-77
2022/08/25 21:40:19;;;;;;;1999.90;999.90;;;25.90;83.40;;;;;;6719697;88;20668;-78
2022/08/25 21:50:21;;;;;;;1999.90;999.90;;;25.80;84.20;;;;;;6709915;88;20201;-78
2022/08/25 22:00:21;;;;;;;1999.90;999.90;;;25.70;85.00;;;;;;6714548;88;20556;-78
2022/08/25 22:10:22;;;;;;;1999.90;999.90;;;25.30;86.30;;;;;;6717009;88;20197;-77
2022/08/25 22:20:23;;;;;;;1999.90;999.90;;;25.20;87.10;;;;;;6723669;88;20203;-78
2022/08/25 22:30:25;;;;;;;1999.90;999.90;;;25.10;87.70;;;;;;6713648;88;20639;-78
2022/08/25 22:40:27;;;;;;;1999.90;999.90;;;24.80;88.80;;;;;;6712697;88;20207;-78
2022/08/25 22:50:27;;;;;;;1999.90;999.90;;;24.70;89.80;;;;;;6713393;88;20268;-77
2022/08/25 23:00:28;;;;;;;1999.90;999.90;;;24.80;90.30;;;;;;6719156;88;20206;-78
2022/08/25 23:10:30;;;;;;;1999.90;999.90;;;24.40;91.30;;;;;;6722747;88;20198;-79
2022/08/25 23:30:49;;;;;;;1999.90;999.90;;;24.10;93.10;;;;;;6724430;88;20178;-78
2022/08/25 23:40:50;;;;;;;1999.90;999.90;;;23.90;93.90;;;;;;6730897;88;20200;-77
2022/08/25 23:50:50;;;;;;;1999.90;999.90;;;23.60;96.10;;;;;;6718243;88;20216;-75
